Airfield :







YOU CAN JOIN US ON...

 
LOGIN :

Register | Disclaimer

   EN    FR    IT 

 









Legend :    VFR   Marginal VFR   IFR   Intensive IFR   Very Intensive IFR
Visi :
Ceiling :
>= 8 km
>= 3000ft
5 to 8 km
1000 to 3000 ft
1500m to 5 km
500 to 1000 ft
800 to 1500m
200 to 500 ft
< 800m
< 200 ft
Symbols :   Thunderstorms  Fog  Heavy snow  Heavy precipitations  Wind > 20 kt







- Airport Elevation : 171 ft
- IATA code : KEF


BIKF - Keflavik International

CURRENT METAR :
  • 150800Z 15014KT 9999 -RA SCT018 BKN024 BKN032 07/06 Q1003

EXPIRED METARs :
  • 150730Z 15016KT 9999 -RA SCT021 BKN026 BKN036 06/04 Q1004
  • 150700Z 14014KT 9999 -RA FEW027 SCT032 BKN041 05/03 Q1005
  • 150630Z 14011KT 9999 -RA FEW029 SCT038 BKN045 04/01 Q1005
  • 150530Z 13010KT 9999 BKN046 03/M01 Q1006

TAF TAF BIKF
Valid from the 15 at 06:00 until the 16 at 06:00 UTC


150443Z 1506/1606 13008KT 9999 FEW030 BKN040 TX10/1513Z TN02/1506Z
BECMG 1506/1509 21018KT -RA BKN015 OVC025
TEMPO 1506/1511 5000 RA BR OVC010
BECMG 1509/1512 21022G32KT
BECMG 1513/1515 24032G44KT 9999 SHRA
TEMPO 1516/1518 26038G54KT
BECMG 1522/1601 27022G32KT NSW BKN030
No reported NOTAMs for that airfield.



MET'MAP, your aeronautical weather chart ! - Copyright ORBIFLY December 2007 - Disclaimer

ORBIFLY MET'MAP TEAM :

Programming & Development : Alexandra Zaïnal
Concept & Development : Baudouin d'Aumeries
Co-Development & Prog : Marc-Olivier Méhu
Technical & hardware support : Manuel Goepfert

Contact : metmap@orbifly.com




SOURCES & CREDITS :

   NOAA